Time,TemperatureF,DewpointF,PressureIn,WindDirection,WindDirectionDegrees,WindSpeedMPH,WindSpeedGustMPH,Humidity,HourlyPrecipIn,Conditions,Clouds,dailyrainin,SoftwareType,DateUTC
2013-01-17 00:04:00,32.5,32.3,30.00,SSW,202,2.2,-999.0,99,-99.99,,,0.00,Acu-Link.com,2013-01-17 06:04:00,
2013-01-17 00:19:00,31.6,31.4,30.01,SE,135,0.0,-999.0,99,-99.99,,,0.00,Acu-Link.com,2013-01-17 06:19:00,
2013-01-17 00:36:00,32.0,31.8,30.02,West,270,2.7,-999.0,99,-99.99,,,0.00,Acu-Link.com,2013-01-17 06:36:00,
2013-01-17 00:51:00,32.4,32.2,30.03,SSW,202,0.0,-999.0,99,-99.99,,,0.00,Acu-Link.com,2013-01-17 06:51:00,
2013-01-17 01:08:00,32.7,32.5,30.03,SW,225,0.0,-999.0,99,-99.99,,,0.00,Acu-Link.com,2013-01-17 07:08:00,
2013-01-17 01:27:00,32.7,32.5,30.03,SSW,202,0.0,-999.0,99,-99.99,,,0.00,Acu-Link.com,2013-01-17 07:27:00,
2013-01-17 01:42:00,32.7,32.5,30.04,SW,225,0.0,-999.0,99,-99.99,,,0.00,Acu-Link.com,2013-01-17 07:42:00,
2013-01-17 01:58:00,32.7,32.5,30.04,West,270,0.0,-999.0,99,-99.99,,,0.00,Acu-Link.com,2013-01-17 07:58:00,
2013-01-17 02:13:00,32.7,32.5,30.04,WNW,292,0.0,-999.0,99,-99.99,,,0.00,Acu-Link.com,2013-01-17 08:13:00,
2013-01-17 02:28:00,33.3,33.0,30.05,WSW,247,0.0,-999.0,99,-99.99,,,0.00,Acu-Link.com,2013-01-17 08:28:00,
2013-01-17 02:44:00,33.1,32.8,30.06,SSE,157,0.0,-999.0,99,-99.99,,,0.00,Acu-Link.com,2013-01-17 08:44:00,
2013-01-17 02:59:00,32.0,31.8,30.06,SSW,202,0.0,-999.0,99,-99.99,,,0.00,Acu-Link.com,2013-01-17 08:59:00,
2013-01-17 03:14:00,30.7,30.5,30.06,WSW,247,0.0,-999.0,99,-99.99,,,0.00,Acu-Link.com,2013-01-17 09:14:00,
2013-01-17 03:29:00,29.3,29.1,30.06,WSW,247,0.0,-999.0,99,-99.99,,,0.00,Acu-Link.com,2013-01-17 09:29:00,
2013-01-17 03:45:00,29.1,28.9,30.06,WNW,292,2.7,-999.0,99,-99.99,,,0.00,Acu-Link.com,2013-01-17 09:45:00,
2013-01-17 04:00:00,29.3,29.1,30.06,WNW,292,0.0,-999.0,99,-99.99,,,0.00,Acu-Link.com,2013-01-17 10:00:00,
2013-01-17 04:15:00,29.8,29.6,30.07,West,270,4.2,-999.0,99,-99.99,,,0.00,Acu-Link.com,2013-01-17 10:15:00,
2013-01-17 04:30:00,30.0,29.8,30.07,West,270,5.8,-999.0,99,-99.99,,,0.00,Acu-Link.com,2013-01-17 10:30:00,
2013-01-17 04:45:00,30.0,29.8,30.08,WNW,292,4.2,-999.0,99,-99.99,,,0.00,Acu-Link.com,2013-01-17 10:45:00,
2013-01-17 05:00:00,29.5,29.3,30.09,WNW,292,6.3,-999.0,99,-99.99,,,0.00,Acu-Link.com,2013-01-17 11:00:00,
2013-01-17 05:16:00,30.7,30.5,30.10,NNW,337,5.8,-999.0,99,-99.99,,,0.00,Acu-Link.com,2013-01-17 11:16:00,
2013-01-17 05:31:00,31.1,30.9,30.11,NW,315,4.2,-999.0,99,-99.99,,,0.00,Acu-Link.com,2013-01-17 11:31:00,
2013-01-17 05:46:00,30.7,30.5,30.11,NNW,337,3.7,-999.0,99,-99.99,,,0.00,Acu-Link.com,2013-01-17 11:46:00,
2013-01-17 06:02:00,30.2,30.0,30.12,NNW,337,4.2,-999.0,99,-99.99,,,0.00,Acu-Link.com,2013-01-17 12:02:00,
2013-01-17 06:17:00,30.2,30.0,30.12,NNE,22,4.7,-999.0,99,-99.99,,,0.00,Acu-Link.com,2013-01-17 12:17:00,
2013-01-17 06:32:00,29.7,29.5,30.13,NNE,22,4.7,-999.0,99,-99.99,,,0.00,Acu-Link.com,2013-01-17 12:32:00,
2013-01-17 06:47:00,29.1,28.9,30.13,NNE,22,3.2,-999.0,99,-99.99,,,0.00,Acu-Link.com,2013-01-17 12:47:00,
2013-01-17 07:02:00,28.8,28.6,30.14,NE,45,3.7,-999.0,99,-99.99,,,0.00,Acu-Link.com,2013-01-17 13:02:00,
2013-01-17 07:17:00,28.0,27.8,30.14,NNE,22,1.1,-999.0,99,-99.99,,,0.00,Acu-Link.com,2013-01-17 13:17:00,
2013-01-17 07:32:00,27.7,27.5,30.14,NE,45,0.0,-999.0,99,-99.99,,,0.00,Acu-Link.com,2013-01-17 13:32:00,
2013-01-17 07:48:00,28.0,27.8,30.15,NE,45,3.7,-999.0,99,-99.99,,,0.00,Acu-Link.com,2013-01-17 13:48:00,
2013-01-17 08:03:00,28.8,28.6,30.16,ENE,67,1.1,-999.0,99,-99.99,,,0.00,Acu-Link.com,2013-01-17 14:03:00,
2013-01-17 08:21:00,29.7,29.5,30.17,ENE,67,0.0,-999.0,99,-99.99,,,0.00,Acu-Link.com,2013-01-17 14:21:00,
2013-01-17 08:36:00,30.9,30.7,30.18,NNE,22,5.3,-999.0,99,-99.99,,,0.00,Acu-Link.com,2013-01-17 14:36:00,
2013-01-17 10:34:00,33.8,33.5,30.22,NW,315,8.9,-999.0,99,-99.99,,,0.00,Acu-Link.com,2013-01-17 16:34:00,
2013-01-17 10:50:00,33.8,33.5,30.21,NNW,337,8.9,-999.0,99,-99.99,,,0.00,Acu-Link.com,2013-01-17 16:50:00,
2013-01-17 11:05:00,34.3,34.0,30.21,North,0,10.4,-999.0,99,-99.99,,,0.00,Acu-Link.com,2013-01-17 17:05:00,
2013-01-17 11:20:00,34.2,33.9,30.20,North,0,8.3,-999.0,99,-99.99,,,0.00,Acu-Link.com,2013-01-17 17:20:00,
2013-01-17 11:35:00,33.6,33.3,30.21,NNE,22,8.9,-999.0,99,-99.99,,,0.00,Acu-Link.com,2013-01-17 17:35:00,
2013-01-17 11:50:00,34.3,34.0,30.21,NNW,337,10.4,-999.0,99,-99.99,,,0.00,Acu-Link.com,2013-01-17 17:50:00,
2013-01-17 12:05:00,33.8,33.5,30.21,WNW,292,10.4,-999.0,99,-99.99,,,0.00,Acu-Link.com,2013-01-17 18:05:00,
2013-01-17 12:20:00,34.5,34.2,30.20,North,0,11.9,-999.0,99,-99.99,,,0.00,Acu-Link.com,2013-01-17 18:20:00,
2013-01-17 12:35:00,34.0,33.7,30.20,WNW,292,14.5,-999.0,99,-99.99,,,0.00,Acu-Link.com,2013-01-17 18:35:00,
2013-01-17 12:50:00,34.9,34.6,30.20,NNE,22,8.3,-999.0,99,-99.99,,,0.00,Acu-Link.com,2013-01-17 18:50:00,
2013-01-17 13:06:00,34.9,34.6,30.19,NNW,337,14.0,-999.0,99,-99.99,,,0.00,Acu-Link.com,2013-01-17 19:06:00,
2013-01-17 13:21:00,34.5,34.2,30.19,NNW,337,13.0,-999.0,99,-99.99,,,0.00,Acu-Link.com,2013-01-17 19:21:00,
2013-01-17 13:36:00,34.7,34.4,30.19,NNE,22,9.9,-999.0,99,-99.99,,,0.00,Acu-Link.com,2013-01-17 19:36:00,
2013-01-17 13:51:00,34.3,34.0,30.20,North,0,11.9,-999.0,99,-99.99,,,0.00,Acu-Link.com,2013-01-17 19:51:00,
2013-01-17 14:06:00,34.7,34.4,30.19,NW,315,13.0,-999.0,99,-99.99,,,0.00,Acu-Link.com,2013-01-17 20:06:00,
2013-01-17 14:21:00,34.2,33.9,30.19,NW,315,7.8,-999.0,99,-99.99,,,0.00,Acu-Link.com,2013-01-17 20:21:00,
2013-01-17 14:36:00,34.2,33.9,30.20,NNW,337,11.4,-999.0,99,-99.99,,,0.00,Acu-Link.com,2013-01-17 20:36:00,
2013-01-17 14:51:00,33.6,33.3,30.21,North,0,13.5,-999.0,99,-99.99,,,0.00,Acu-Link.com,2013-01-17 20:51:00,
2013-01-17 15:07:00,33.6,33.3,30.21,NW,315,10.4,-999.0,99,-99.99,,,0.00,Acu-Link.com,2013-01-17 21:07:00,
2013-01-17 15:22:00,33.1,32.8,30.22,North,0,9.9,-999.0,99,-99.99,,,0.00,Acu-Link.com,2013-01-17 21:22:00,
2013-01-17 15:37:00,32.7,32.5,30.23,NW,315,12.5,-999.0,99,-99.99,,,0.00,Acu-Link.com,2013-01-17 21:37:00,
2013-01-17 15:52:00,32.9,32.7,30.23,NNW,337,10.9,-999.0,99,-99.99,,,0.00,Acu-Link.com,2013-01-17 21:52:00,
2013-01-17 16:07:00,32.2,32.0,30.24,WNW,292,16.1,-999.0,99,-99.99,,,0.00,Acu-Link.com,2013-01-17 22:07:00,
2013-01-17 16:22:00,31.3,31.1,30.24,NNE,22,8.9,-999.0,99,-99.99,,,0.00,Acu-Link.com,2013-01-17 22:22:00,
2013-01-17 16:37:00,30.9,30.7,30.25,NNW,337,13.0,-999.0,99,-99.99,,,0.00,Acu-Link.com,2013-01-17 22:37:00,
2013-01-17 16:52:00,30.4,30.2,30.27,NW,315,10.9,-999.0,99,-99.99,,,0.00,Acu-Link.com,2013-01-17 22:52:00,
2013-01-17 17:07:00,29.5,29.3,30.27,NNE,22,9.9,-999.0,99,-99.99,,,0.00,Acu-Link.com,2013-01-17 23:07:00,
2013-01-17 17:23:00,29.1,28.9,30.28,NW,315,9.9,-999.0,99,-99.99,,,0.00,Acu-Link.com,2013-01-17 23:23:00,
2013-01-17 17:38:00,28.4,28.2,30.29,NW,315,9.9,-999.0,99,-99.99,,,0.00,Acu-Link.com,2013-01-17 23:38:00,
2013-01-17 17:53:00,27.9,27.7,30.28,NE,45,7.8,-999.0,99,-99.99,,,0.00,Acu-Link.com,2013-01-17 23:53:00,
2013-01-17 18:08:00,27.7,27.5,30.28,WNW,292,6.8,-999.0,99,-99.99,,,0.00,Acu-Link.com,2013-01-18 00:08:00,
2013-01-17 18:23:00,27.1,26.9,30.31,North,0,10.4,-999.0,99,-99.99,,,0.00,Acu-Link.com,2013-01-18 00:23:00,
2013-01-17 18:38:00,27.0,26.8,30.31,NW,315,9.4,-999.0,99,-99.99,,,0.00,Acu-Link.com,2013-01-18 00:38:00,
2013-01-17 18:53:00,26.1,25.9,30.32,NNW,337,4.2,-999.0,99,-99.99,,,0.00,Acu-Link.com,2013-01-18 00:53:00,
2013-01-17 19:08:00,25.7,25.5,30.33,NW,315,3.7,-999.0,99,-99.99,,,0.00,Acu-Link.com,2013-01-18 01:08:00,
2013-01-17 19:23:00,25.2,25.0,30.33,WNW,292,3.7,-999.0,99,-99.99,,,0.00,Acu-Link.com,2013-01-18 01:23:00,
2013-01-17 19:39:00,24.8,24.6,30.33,North,0,4.7,-999.0,99,-99.99,,,0.00,Acu-Link.com,2013-01-18 01:39:00,
2013-01-17 19:54:00,24.8,24.6,30.33,NE,45,4.2,-999.0,99,-99.99,,,0.00,Acu-Link.com,2013-01-18 01:54:00,
2013-01-17 20:09:00,24.1,23.9,30.34,NW,315,2.7,-999.0,99,-99.99,,,0.00,Acu-Link.com,2013-01-18 02:09:00,
2013-01-17 20:24:00,23.4,23.2,30.34,NW,315,0.0,-999.0,99,-99.99,,,0.00,Acu-Link.com,2013-01-18 02:24:00,
2013-01-17 20:39:00,22.6,22.4,30.34,NNW,337,0.0,-999.0,99,-99.99,,,0.00,Acu-Link.com,2013-01-18 02:39:00,
2013-01-17 20:54:00,22.5,22.3,30.35,WNW,292,0.0,-999.0,99,-99.99,,,0.00,Acu-Link.com,2013-01-18 02:54:00,
2013-01-17 21:09:00,21.2,21.0,30.35,WSW,247,0.0,-999.0,99,-99.99,,,0.00,Acu-Link.com,2013-01-18 03:09:00,
2013-01-17 21:24:00,19.6,19.4,30.35,WSW,247,0.0,-999.0,99,-99.99,,,0.00,Acu-Link.com,2013-01-18 03:24:00,
2013-01-17 21:39:00,18.5,18.3,30.35,WSW,247,0.0,-999.0,99,-99.99,,,0.00,Acu-Link.com,2013-01-18 03:39:00,
2013-01-17 21:55:00,18.1,17.9,30.35,South,180,0.0,-999.0,99,-99.99,,,0.00,Acu-Link.com,2013-01-18 03:55:00,
2013-01-17 22:10:00,17.1,16.9,30.35,West,270,0.0,-999.0,99,-99.99,,,0.00,Acu-Link.com,2013-01-18 04:10:00,
2013-01-17 22:25:00,18.3,18.1,30.36,SSW,202,0.0,-999.0,99,-99.99,,,0.00,Acu-Link.com,2013-01-18 04:25:00,
2013-01-17 22:40:00,19.2,19.0,30.35,South,180,0.0,-999.0,99,-99.99,,,0.00,Acu-Link.com,2013-01-18 04:40:00,
2013-01-17 22:55:00,18.5,18.3,30.36,South,180,0.0,-999.0,99,-99.99,,,0.00,Acu-Link.com,2013-01-18 04:55:00,
2013-01-17 23:10:00,17.4,17.2,30.35,South,180,0.0,-999.0,99,-99.99,,,0.00,Acu-Link.com,2013-01-18 05:10:00,
2013-01-17 23:25:00,18.1,17.9,30.36,SW,225,0.0,-999.0,99,-99.99,,,0.00,Acu-Link.com,2013-01-18 05:25:00,
2013-01-17 23:40:00,19.0,18.8,30.36,SW,225,0.0,-999.0,99,-99.99,,,0.00,Acu-Link.com,2013-01-18 05:40:00,
2013-01-17 23:55:00,19.8,19.6,30.37,SW,225,0.0,-999.0,99,-99.99,,,0.00,Acu-Link.com,2013-01-18 05:55:00,